createdAt,value
2023-05-16T00:00:40.867Z,14.98
2023-05-16T00:02:49.234Z,13.85
2023-05-16T00:05:00.205Z,15.35
2023-05-16T00:07:08.903Z,15.30
2023-05-16T00:09:17.011Z,16.60
2023-05-16T00:11:25.216Z,16.73
2023-05-16T00:13:33.479Z,15.70
2023-05-16T00:15:42.013Z,16.23
2023-05-16T00:17:50.115Z,15.63
2023-05-16T00:20:01.213Z,14.75
2023-05-16T00:22:09.370Z,15.15
2023-05-16T00:24:17.365Z,15.55
2023-05-16T00:26:25.304Z,15.30
2023-05-16T00:28:33.319Z,15.70
2023-05-16T00:30:41.374Z,15.70
2023-05-16T00:32:51.336Z,15.32
2023-05-16T00:35:02.109Z,15.38
2023-05-16T00:37:10.073Z,13.93
2023-05-16T00:39:18.676Z,14.73
2023-05-16T00:41:27.012Z,15.07
2023-05-16T00:43:34.921Z,15.07
2023-05-16T00:45:43.196Z,15.40
2023-05-16T00:47:51.444Z,14.80
2023-05-16T00:50:02.138Z,16.27
2023-05-16T00:52:10.303Z,15.30
2023-05-16T00:54:18.405Z,15.70
2023-05-16T00:56:27.483Z,17.05
2023-05-16T00:58:37.218Z,15.55
2023-05-16T01:00:47.866Z,16.10
2023-05-16T01:02:56.731Z,15.65
2023-05-16T01:05:08.726Z,16.63
2023-05-16T01:07:16.889Z,18.48
2023-05-16T01:09:24.873Z,17.88
2023-05-16T01:11:44.899Z,16.63
2023-05-16T01:14:07.070Z,17.10
2023-05-16T01:16:21.669Z,15.10
2023-05-16T01:18:37.797Z,16.48
2023-05-16T01:20:53.135Z,15.48
2023-05-16T01:23:10.657Z,15.75
2023-05-16T01:25:30.051Z,16.25
2023-05-16T01:27:42.088Z,16.23
2023-05-16T01:29:50.032Z,16.40
2023-05-16T01:31:58.555Z,15.95
2023-05-16T01:34:06.686Z,15.63
2023-05-16T01:36:20.567Z,16.83
2023-05-16T01:38:33.008Z,17.30
2023-05-16T01:40:49.001Z,17.25
2023-05-16T01:43:03.336Z,16.63
2023-05-16T01:45:18.018Z,19.05
2023-05-16T01:47:28.400Z,19.75
2023-05-16T01:49:42.074Z,21.90
2023-05-16T01:51:54.844Z,20.50
2023-05-16T01:54:08.492Z,23.23
2023-05-16T01:56:20.188Z,25.30
2023-05-16T01:58:36.887Z,26.33
2023-05-16T02:00:45.239Z,27.67
2023-05-16T02:02:53.463Z,26.48
2023-05-16T02:05:01.341Z,26.60
2023-05-16T02:07:09.446Z,26.60
2023-05-16T02:09:18.931Z,28.70
2023-05-16T02:11:26.935Z,25.10
2023-05-16T02:13:39.827Z,28.00
2023-05-16T02:15:47.917Z,25.35
2023-05-16T02:17:57.172Z,23.92
2023-05-16T02:20:07.375Z,27.52
2023-05-16T02:22:15.377Z,23.73
2023-05-16T02:24:23.357Z,29.38
2023-05-16T02:26:31.391Z,31.73
2023-05-16T02:28:42.121Z,28.70
2023-05-16T02:30:59.597Z,28.10
2023-05-16T02:33:07.708Z,30.48
2023-05-16T02:35:18.935Z,30.98
2023-05-16T02:37:27.069Z,27.50
2023-05-16T02:39:35.136Z,30.77
2023-05-16T02:41:43.300Z,27.60
2023-05-16T02:43:53.895Z,24.52
2023-05-16T02:46:01.870Z,27.88
2023-05-16T02:48:12.183Z,27.17
2023-05-16T02:50:20.993Z,26.70
2023-05-16T02:52:29.691Z,25.50
2023-05-16T02:54:37.989Z,25.02
2023-05-16T02:56:46.042Z,23.25
2023-05-16T02:58:57.897Z,23.95
2023-05-16T03:01:06.246Z,25.85
2023-05-16T03:03:15.444Z,28.98
2023-05-16T03:05:24.863Z,27.92
2023-05-16T03:07:34.939Z,27.38
2023-05-16T03:09:46.529Z,24.75
2023-05-16T03:11:54.593Z,28.10
2023-05-16T03:14:05.954Z,27.35
2023-05-16T03:16:14.060Z,24.95
2023-05-16T03:18:24.655Z,27.45
2023-05-16T03:20:32.640Z,25.67
2023-05-16T03:22:41.342Z,25.85
2023-05-16T03:24:53.601Z,25.60
2023-05-16T03:27:03.986Z,24.63
2023-05-16T03:29:14.679Z,25.30
2023-05-16T03:31:22.781Z,25.38
2023-05-16T03:33:32.547Z,29.25
2023-05-16T03:35:41.584Z,28.00
2023-05-16T03:37:52.607Z,29.80
2023-05-16T03:40:00.681Z,31.70
2023-05-16T03:42:08.964Z,29.60
2023-05-16T03:44:19.662Z,32.20
2023-05-16T03:46:27.741Z,31.67
2023-05-16T03:48:36.891Z,29.73
2023-05-16T03:50:45.955Z,32.65
2023-05-16T03:52:54.634Z,31.20
2023-05-16T03:55:04.249Z,31.45
2023-05-16T03:57:12.176Z,29.48
2023-05-16T03:59:23.111Z,32.10
2023-05-16T04:01:31.222Z,32.63
2023-05-16T04:03:39.610Z,31.92
2023-05-16T04:05:47.660Z,30.25
2023-05-16T04:07:55.730Z,33.63
2023-05-16T04:10:04.105Z,31.38
2023-05-16T04:12:12.328Z,30.95
2023-05-16T04:14:23.119Z,31.05
2023-05-16T04:16:31.352Z,33.80
2023-05-16T04:18:39.682Z,33.80
2023-05-16T04:20:47.905Z,33.70
2023-05-16T04:22:58.886Z,35.17
2023-05-16T04:25:07.209Z,34.60
2023-05-16T04:27:15.196Z,33.03
2023-05-16T04:29:26.083Z,31.98
2023-05-16T04:31:34.240Z,33.05
2023-05-16T04:33:42.553Z,31.77
2023-05-16T04:35:50.634Z,32.47
2023-05-16T04:38:02.298Z,32.47
2023-05-16T04:40:16.211Z,31.38
2023-05-16T04:42:24.515Z,32.22
2023-05-16T04:44:35.000Z,32.42
2023-05-16T04:46:45.327Z,29.55
2023-05-16T04:48:53.544Z,29.98
2023-05-16T04:51:01.640Z,32.55
2023-05-16T04:53:11.678Z,33.50
2023-05-16T04:55:19.796Z,32.28
2023-05-16T04:57:28.174Z,30.73
2023-05-16T04:59:39.184Z,30.95
2023-05-16T05:01:47.519Z,32.05
2023-05-16T05:03:55.466Z,31.50
2023-05-16T05:06:03.687Z,32.05
2023-05-16T05:08:13.460Z,32.38
2023-05-16T05:10:21.853Z,32.15
2023-05-16T05:12:30.172Z,32.63
2023-05-16T05:14:41.759Z,33.35
2023-05-16T05:16:50.089Z,32.83
2023-05-16T05:18:58.529Z,33.20
2023-05-16T05:21:08.601Z,31.13
2023-05-16T05:23:17.602Z,35.08
2023-05-16T05:25:25.687Z,33.42
2023-05-16T05:27:33.953Z,31.02
2023-05-16T05:29:45.229Z,32.35
2023-05-16T05:31:53.497Z,31.67
2023-05-16T05:34:01.713Z,30.15
2023-05-16T05:36:10.621Z,31.73
2023-05-16T05:38:18.645Z,30.40
2023-05-16T05:40:26.715Z,29.52
2023-05-16T05:42:34.667Z,32.63
2023-05-16T05:44:45.407Z,30.30
2023-05-16T05:46:53.541Z,31.92
2023-05-16T05:49:01.824Z,30.50
2023-05-16T05:51:09.890Z,32.92
2023-05-16T05:53:19.375Z,32.47
2023-05-16T05:55:27.719Z,32.65
2023-05-16T05:57:36.083Z,33.40
2023-05-16T05:59:47.269Z,31.10
2023-05-16T06:01:55.839Z,30.83
2023-05-16T06:04:03.959Z,31.42
2023-05-16T06:06:12.332Z,30.65
2023-05-16T06:08:20.352Z,28.23
2023-05-16T06:10:28.618Z,30.73
2023-05-16T06:12:36.862Z,31.35
2023-05-16T06:14:47.632Z,31.50
2023-05-16T06:16:55.782Z,28.50
2023-05-16T06:19:04.081Z,28.40
2023-05-16T06:21:12.656Z,28.13
2023-05-16T06:23:21.582Z,29.63
2023-05-16T06:25:30.236Z,29.13
2023-05-16T06:27:38.609Z,30.38
2023-05-16T06:29:49.815Z,28.65
2023-05-16T06:31:58.151Z,29.23
2023-05-16T06:34:06.415Z,28.17
2023-05-16T06:36:14.413Z,29.15
2023-05-16T06:38:22.933Z,29.48
2023-05-16T06:40:33.468Z,28.33
2023-05-16T06:42:41.818Z,28.80
2023-05-16T06:44:52.644Z,24.33
2023-05-16T06:47:00.794Z,26.55
2023-05-16T06:49:09.168Z,24.55
2023-05-16T06:51:17.314Z,25.25
2023-05-16T06:53:25.535Z,25.92
2023-05-16T06:55:33.651Z,22.63
2023-05-16T06:57:41.679Z,23.05
2023-05-16T06:59:52.966Z,23.80
2023-05-16T07:02:01.374Z,23.20
2023-05-16T07:04:09.711Z,23.92
2023-05-16T07:06:17.967Z,21.85
2023-05-16T07:08:25.865Z,21.58
2023-05-16T07:10:33.821Z,22.33
2023-05-16T07:12:44.987Z,23.00
2023-05-16T07:14:55.884Z,22.42
2023-05-16T07:17:04.699Z,23.08
2023-05-16T07:19:12.822Z,21.80
2023-05-16T07:21:21.033Z,21.17
2023-05-16T07:23:29.110Z,20.33
2023-05-16T07:25:37.254Z,19.77
2023-05-16T07:27:46.003Z,21.10
2023-05-16T07:29:56.523Z,20.65
2023-05-16T07:32:04.615Z,20.25
2023-05-16T07:34:13.269Z,22.38
2023-05-16T07:36:22.070Z,21.45
2023-05-16T07:38:31.126Z,19.98
2023-05-16T07:40:39.176Z,18.80
2023-05-16T07:42:47.488Z,21.08
2023-05-16T07:44:58.195Z,22.55
2023-05-16T07:47:06.770Z,22.25
2023-05-16T07:49:17.594Z,21.85
2023-05-16T07:51:25.474Z,21.23
2023-05-16T07:53:33.529Z,20.58
2023-05-16T07:55:41.863Z,21.08
2023-05-16T07:57:49.921Z,19.20
2023-05-16T08:00:00.969Z,20.15
2023-05-16T08:02:09.288Z,20.50
2023-05-16T08:04:18.713Z,19.33
2023-05-16T08:06:27.719Z,19.20
2023-05-16T08:08:35.694Z,19.02
2023-05-16T08:10:47.487Z,19.10
2023-05-16T08:12:55.944Z,16.80
2023-05-16T08:15:07.709Z,17.95
2023-05-16T08:17:15.878Z,17.83
2023-05-16T08:19:24.124Z,17.55
2023-05-16T08:21:32.299Z,18.13
2023-05-16T08:23:42.968Z,17.80
2023-05-16T08:25:51.175Z,17.38
2023-05-16T08:27:59.455Z,17.40
2023-05-16T08:30:12.318Z,17.67
2023-05-16T08:32:20.308Z,16.52
2023-05-16T08:34:28.528Z,16.00
2023-05-16T08:36:37.349Z,15.90
2023-05-16T08:38:45.347Z,17.30
2023-05-16T08:40:53.410Z,15.55
2023-05-16T08:43:01.512Z,15.10
2023-05-16T08:45:16.826Z,13.82
2023-05-16T08:47:27.920Z,15.13
2023-05-16T08:49:38.059Z,14.68
2023-05-16T08:51:46.474Z,15.95
2023-05-16T08:54:06.675Z,16.48
2023-05-16T08:56:16.425Z,15.77
2023-05-16T08:58:27.154Z,16.00
2023-05-16T09:00:38.995Z,17.42
2023-05-16T09:02:47.469Z,15.75
2023-05-16T09:04:56.680Z,15.20
2023-05-16T09:07:04.800Z,17.25
2023-05-16T09:09:13.635Z,16.83
2023-05-16T09:11:22.034Z,16.10
2023-05-16T09:13:30.332Z,17.42
2023-05-16T09:15:41.311Z,15.50
2023-05-16T09:17:52.889Z,17.48
2023-05-16T09:20:01.097Z,16.60
2023-05-16T09:22:11.062Z,17.23
2023-05-16T09:24:19.344Z,16.85
2023-05-16T09:26:28.087Z,17.33
2023-05-16T09:28:41.461Z,17.88
2023-05-16T09:30:52.321Z,17.92
2023-05-16T09:33:01.152Z,16.75
2023-05-16T09:35:24.157Z,18.40
2023-05-16T09:37:39.519Z,17.65
2023-05-16T09:39:52.304Z,18.80
2023-05-16T09:42:02.165Z,18.80
2023-05-16T09:44:10.433Z,17.95
2023-05-16T09:46:21.535Z,19.17
2023-05-16T09:48:29.768Z,18.20
2023-05-16T09:50:39.292Z,20.05
2023-05-16T09:52:47.606Z,19.27
2023-05-16T09:54:55.678Z,20.40
2023-05-16T09:57:04.356Z,19.50
2023-05-16T09:59:14.512Z,21.52
2023-05-16T10:01:26.508Z,19.98
2023-05-16T10:03:37.504Z,19.45
2023-05-16T10:05:46.929Z,21.98
2023-05-16T10:07:56.379Z,21.55
2023-05-16T10:10:08.560Z,21.88
2023-05-16T10:12:19.071Z,20.83
2023-05-16T10:14:29.056Z,19.77
2023-05-16T10:16:39.773Z,20.73
2023-05-16T10:18:48.576Z,21.20
2023-05-16T10:21:00.177Z,21.80
2023-05-16T10:23:08.798Z,20.52
2023-05-16T10:25:27.529Z,18.80
2023-05-16T10:27:36.729Z,20.02
2023-05-16T10:29:54.368Z,18.95
2023-05-16T10:32:10.665Z,19.65
2023-05-16T10:34:19.968Z,19.40
2023-05-16T10:36:28.335Z,18.20
2023-05-16T10:38:39.340Z,18.05
2023-05-16T10:40:48.368Z,19.63
2023-05-16T10:42:59.922Z,20.17
2023-05-16T10:45:21.113Z,18.70
2023-05-16T10:47:32.059Z,19.60
2023-05-16T10:49:44.112Z,16.67
2023-05-16T10:52:08.188Z,18.20
2023-05-16T10:54:28.351Z,18.70
2023-05-16T10:56:36.996Z,18.02
2023-05-16T10:58:46.323Z,17.65
2023-05-16T11:01:18.468Z,17.88
2023-05-16T11:03:32.577Z,17.25
2023-05-16T11:05:41.026Z,16.52
2023-05-16T11:08:07.201Z,19.40
2023-05-16T11:10:21.958Z,16.75
2023-05-16T11:12:40.737Z,17.00
2023-05-16T11:14:54.600Z,17.02
2023-05-16T11:17:10.112Z,15.77
2023-05-16T11:19:33.371Z,16.50
2023-05-16T11:22:09.435Z,15.20
2023-05-16T11:24:32.859Z,14.55
2023-05-16T11:26:41.094Z,16.10
2023-05-16T11:28:52.416Z,17.30
2023-05-16T11:31:05.675Z,15.90
2023-05-16T11:33:14.695Z,16.23
2023-05-16T11:35:25.473Z,17.92
2023-05-16T11:37:33.640Z,16.95
2023-05-16T11:39:41.874Z,15.63
2023-05-16T11:41:51.131Z,16.80
2023-05-16T11:44:01.654Z,16.52
2023-05-16T11:46:09.744Z,13.55
2023-05-16T11:48:28.670Z,12.65
2023-05-16T11:50:43.613Z,12.40
2023-05-16T11:52:54.376Z,14.00
2023-05-16T11:55:05.019Z,14.55
2023-05-16T11:57:12.984Z,12.68
2023-05-16T11:59:21.579Z,11.70
2023-05-16T12:01:39.344Z,12.05
2023-05-16T12:03:47.530Z,12.85
2023-05-16T12:06:01.162Z,12.80
2023-05-16T12:08:10.224Z,13.25
2023-05-16T12:10:19.652Z,12.82
2023-05-16T12:12:27.865Z,12.82
2023-05-16T12:14:36.371Z,11.77
2023-05-16T12:16:46.859Z,12.90
2023-05-16T12:18:55.034Z,12.65
2023-05-16T12:21:06.134Z,12.27
2023-05-16T12:23:15.383Z,11.18
2023-05-16T12:25:32.247Z,11.38
2023-05-16T12:27:41.072Z,11.35
2023-05-16T12:29:50.684Z,11.63
2023-05-16T12:31:58.914Z,11.30
2023-05-16T12:34:07.021Z,10.07
2023-05-16T12:36:20.735Z,10.10
2023-05-16T12:38:29.085Z,10.27
2023-05-16T12:40:37.755Z,9.85
2023-05-16T12:42:48.144Z,10.85
2023-05-16T12:44:58.963Z,9.85
2023-05-16T12:47:07.332Z,9.85
2023-05-16T12:49:15.649Z,8.18
2023-05-16T12:51:41.250Z,9.38
2023-05-16T12:54:01.628Z,8.68
2023-05-16T12:56:19.774Z,7.65
2023-05-16T12:58:28.087Z,7.57
2023-05-16T13:00:36.869Z,8.13
2023-05-16T13:02:45.505Z,7.78
2023-05-16T13:04:54.821Z,6.90
2023-05-16T13:07:06.049Z,6.63
2023-05-16T13:09:14.498Z,8.02
2023-05-16T13:11:23.009Z,7.22
2023-05-16T13:15:43.355Z,7.60
2023-05-16T13:17:51.700Z,6.85
2023-05-16T13:20:00.369Z,6.32
2023-05-16T13:22:11.002Z,6.53
2023-05-16T13:24:19.132Z,5.95
2023-05-16T13:26:27.642Z,6.38
2023-05-16T13:28:38.353Z,6.95
2023-05-16T13:30:46.331Z,6.90
2023-05-16T13:32:54.866Z,7.85
2023-05-16T13:35:04.332Z,7.32
2023-05-16T13:37:15.262Z,7.20
2023-05-16T13:39:25.774Z,6.68
2023-05-16T13:41:38.063Z,6.28
2023-05-16T13:43:49.588Z,7.20
2023-05-16T13:45:57.906Z,6.22
2023-05-16T13:48:11.794Z,6.18
2023-05-16T13:50:20.967Z,6.05
2023-05-16T13:52:34.285Z,8.15
2023-05-16T13:54:43.704Z,7.95
2023-05-16T13:56:54.455Z,6.93
2023-05-16T13:59:06.971Z,5.97
2023-05-16T14:01:15.828Z,6.22
2023-05-16T14:03:24.018Z,6.60
2023-05-16T14:05:33.150Z,7.85
2023-05-16T14:07:46.115Z,7.95
2023-05-16T14:09:55.081Z,6.65
2023-05-16T14:12:03.169Z,6.05
2023-05-16T14:14:16.218Z,7.28
2023-05-16T14:16:24.266Z,5.90
2023-05-16T14:18:34.061Z,6.80
2023-05-16T14:20:42.326Z,6.25
2023-05-16T14:22:53.233Z,5.80
2023-05-16T14:25:01.626Z,6.50
2023-05-16T14:27:15.243Z,6.25
2023-05-16T14:29:27.670Z,7.28
2023-05-16T14:31:36.646Z,6.85
2023-05-16T14:33:44.998Z,5.35
2023-05-16T14:36:01.261Z,5.95
2023-05-16T14:38:13.185Z,5.35
2023-05-16T14:40:21.887Z,5.25
2023-05-16T14:42:30.239Z,5.32
2023-05-16T14:44:39.352Z,5.50
2023-05-16T14:46:47.652Z,5.78
2023-05-16T14:48:58.314Z,5.05
2023-05-16T14:51:07.363Z,5.35
2023-05-16T14:53:22.824Z,5.22
2023-05-16T14:55:31.524Z,5.40
2023-05-16T14:57:42.784Z,4.68
2023-05-16T14:59:55.003Z,4.20
2023-05-16T15:02:05.555Z,5.20
2023-05-16T15:04:13.847Z,4.65
2023-05-16T15:06:30.182Z,4.95
2023-05-16T15:08:46.811Z,5.07
2023-05-16T15:10:57.350Z,5.13
2023-05-16T15:13:08.686Z,5.03
2023-05-16T15:15:20.297Z,4.75
2023-05-16T15:17:28.444Z,4.40
2023-05-16T15:19:36.610Z,4.70
2023-05-16T15:21:44.955Z,5.18
2023-05-16T15:23:55.685Z,5.05
2023-05-16T15:26:03.737Z,5.00
2023-05-16T15:28:13.364Z,4.90
2023-05-16T15:30:21.529Z,4.15
2023-05-16T15:32:29.997Z,5.00
2023-05-16T15:34:42.831Z,4.40
2023-05-16T15:36:54.290Z,4.65
2023-05-16T15:39:05.187Z,3.78
2023-05-16T15:41:32.000Z,4.90
2023-05-16T15:43:44.270Z,3.45
2023-05-16T15:45:54.898Z,3.70
2023-05-16T15:48:03.550Z,3.10
2023-05-16T15:50:15.463Z,3.80
2023-05-16T15:52:26.288Z,3.67
2023-05-16T15:54:42.974Z,4.93
2023-05-16T15:56:51.117Z,3.97
2023-05-16T15:58:59.793Z,3.60
2023-05-16T16:01:08.060Z,3.80
2023-05-16T16:03:16.336Z,3.50
2023-05-16T16:05:24.708Z,3.60
2023-05-16T16:07:34.040Z,3.40
2023-05-16T16:09:45.730Z,3.10
2023-05-16T16:11:56.941Z,3.55
2023-05-16T16:14:04.941Z,3.20
2023-05-16T16:16:14.045Z,2.75
2023-05-16T16:18:22.568Z,2.80
2023-05-16T16:20:31.145Z,3.78
2023-05-16T16:22:39.297Z,2.95
2023-05-16T16:24:51.972Z,2.80
2023-05-16T16:27:05.296Z,2.70
2023-05-16T16:29:16.267Z,2.97
2023-05-16T16:31:24.701Z,3.33
2023-05-16T16:33:34.369Z,3.92
2023-05-16T16:35:42.635Z,2.78
2023-05-16T16:38:05.758Z,2.90
2023-05-16T16:40:17.976Z,3.35
2023-05-16T16:42:30.901Z,2.80
2023-05-16T16:44:44.833Z,3.05
2023-05-16T16:46:56.044Z,2.95
2023-05-16T16:49:04.315Z,2.90
2023-05-16T16:51:12.436Z,3.55
2023-05-16T16:53:20.547Z,2.40
2023-05-16T16:55:33.776Z,3.17
2023-05-16T16:57:41.760Z,2.92
2023-05-16T16:59:50.302Z,2.92
2023-05-16T17:01:58.534Z,2.33
2023-05-16T17:04:06.746Z,2.50
2023-05-16T17:06:14.751Z,3.35
2023-05-16T17:08:23.180Z,2.90
2023-05-16T17:10:35.235Z,3.53
2023-05-16T17:12:49.239Z,3.22
2023-05-16T17:14:57.668Z,3.03
2023-05-16T17:17:07.757Z,3.10
2023-05-16T17:19:15.963Z,3.33
2023-05-16T17:21:24.126Z,2.47
2023-05-16T17:23:33.042Z,2.75
2023-05-16T17:25:45.490Z,2.88
2023-05-16T17:27:54.117Z,2.95
2023-05-16T17:30:02.325Z,2.40
2023-05-16T17:32:11.110Z,2.95
2023-05-16T17:34:19.600Z,2.70
2023-05-16T17:36:27.725Z,2.55
2023-05-16T17:38:35.829Z,3.65
2023-05-16T17:40:46.953Z,2.30
2023-05-16T17:42:55.159Z,2.78
2023-05-16T17:45:07.424Z,3.10
2023-05-16T17:47:16.832Z,2.53
2023-05-16T17:49:28.728Z,2.47
2023-05-16T17:51:54.204Z,2.22
2023-05-16T17:54:04.862Z,2.53
2023-05-16T17:56:16.796Z,2.85
2023-05-16T17:58:26.239Z,2.35
2023-05-16T18:00:35.084Z,3.03
2023-05-16T18:02:43.124Z,2.05
2023-05-16T18:04:51.823Z,2.65
2023-05-16T18:07:00.477Z,2.60
2023-05-16T18:09:10.577Z,1.98
2023-05-16T18:11:26.384Z,2.20
2023-05-16T18:13:35.461Z,2.42
2023-05-16T18:15:46.520Z,2.30
2023-05-16T18:17:54.978Z,2.30
2023-05-16T18:20:09.717Z,1.85
2023-05-16T18:22:18.306Z,2.45
2023-05-16T18:24:26.457Z,2.13
2023-05-16T18:26:37.261Z,2.10
2023-05-16T18:28:50.303Z,1.77
2023-05-16T18:30:58.320Z,1.90
2023-05-16T18:33:08.031Z,1.77
2023-05-16T18:35:18.245Z,2.03
2023-05-16T18:37:26.635Z,1.83
2023-05-16T18:39:34.800Z,1.80
2023-05-16T18:41:46.988Z,2.22
2023-05-16T18:43:54.996Z,2.17
2023-05-16T18:46:03.289Z,2.05
2023-05-16T18:48:11.957Z,2.00
2023-05-16T18:50:21.946Z,2.05
2023-05-16T18:52:31.576Z,2.17
2023-05-16T18:54:41.028Z,1.85
2023-05-16T18:56:51.694Z,2.03
2023-05-16T18:59:00.093Z,2.20
2023-05-16T19:01:08.203Z,2.17
2023-05-16T19:03:17.491Z,2.05
2023-05-16T19:05:26.004Z,2.10
2023-05-16T19:07:35.183Z,2.42
2023-05-16T19:09:43.389Z,2.05
2023-05-16T19:11:54.151Z,1.73
2023-05-16T19:14:02.157Z,1.90
2023-05-16T19:16:10.469Z,2.70
2023-05-16T19:18:19.762Z,2.10
2023-05-16T19:20:28.117Z,1.63
2023-05-16T19:22:36.307Z,1.70
2023-05-16T19:24:44.422Z,1.80
2023-05-16T19:26:57.779Z,1.88
2023-05-16T19:29:08.196Z,1.58
2023-05-16T19:31:16.911Z,1.65
2023-05-16T19:33:24.980Z,1.85
2023-05-16T19:35:32.976Z,2.05
2023-05-16T19:37:43.412Z,2.08
2023-05-16T19:39:51.736Z,1.80
2023-05-16T19:42:07.009Z,1.60
2023-05-16T19:44:15.808Z,1.70
2023-05-16T19:46:23.922Z,1.50
2023-05-16T19:48:31.979Z,2.05
2023-05-16T19:50:40.363Z,1.60
2023-05-16T19:52:48.382Z,2.60
2023-05-16T19:54:56.697Z,2.03
2023-05-16T19:57:07.981Z,1.80
2023-05-16T19:59:16.052Z,2.15
2023-05-16T20:01:23.978Z,2.30
2023-05-16T20:03:32.308Z,2.00
2023-05-16T20:05:40.463Z,2.15
2023-05-16T20:07:48.561Z,2.92
2023-05-16T20:09:56.815Z,2.22
2023-05-16T20:12:08.450Z,1.80
2023-05-16T20:14:16.490Z,1.95
2023-05-16T20:16:24.632Z,1.73
2023-05-16T20:18:32.725Z,1.77
2023-05-16T20:20:40.974Z,1.90
2023-05-16T20:22:49.169Z,1.95
2023-05-16T20:24:57.196Z,2.00
2023-05-16T20:27:08.432Z,1.85
2023-05-16T20:29:16.738Z,1.92
2023-05-16T20:31:25.124Z,2.10
2023-05-16T20:33:33.201Z,1.60
2023-05-16T20:35:41.256Z,1.48
2023-05-16T20:37:49.371Z,1.90
2023-05-16T20:39:57.827Z,2.05
2023-05-16T20:42:11.403Z,1.92
2023-05-16T20:44:19.370Z,1.83
2023-05-16T20:46:27.440Z,1.50
2023-05-16T20:48:36.120Z,2.42
2023-05-16T20:50:44.471Z,2.35
2023-05-16T20:52:54.680Z,1.70
2023-05-16T20:55:02.712Z,1.63
2023-05-16T20:57:13.515Z,2.10
2023-05-16T20:59:21.712Z,1.67
2023-05-16T21:01:29.818Z,1.65
2023-05-16T21:03:38.043Z,2.17
2023-05-16T21:05:46.348Z,2.15
2023-05-16T21:07:54.615Z,1.35
2023-05-16T21:10:02.722Z,1.45
2023-05-16T21:12:13.537Z,1.85
2023-05-16T21:14:21.673Z,1.55
2023-05-16T21:16:30.284Z,1.73
2023-05-16T21:18:38.754Z,1.60
2023-05-16T21:20:46.836Z,1.55
2023-05-16T21:22:54.908Z,1.70
2023-05-16T21:25:02.825Z,1.45
2023-05-16T21:27:14.829Z,1.80
2023-05-16T21:29:22.830Z,1.98
2023-05-16T21:31:30.810Z,1.45
2023-05-16T21:33:41.992Z,2.03
2023-05-16T21:35:49.977Z,1.80
2023-05-16T21:37:58.017Z,2.38
2023-05-16T21:40:06.701Z,2.30
2023-05-16T21:42:17.200Z,1.52
2023-05-16T21:44:25.183Z,1.80
2023-05-16T21:46:33.337Z,1.65
2023-05-16T21:48:41.464Z,1.98
2023-05-16T21:50:49.616Z,1.67
2023-05-16T21:52:57.522Z,2.15
2023-05-16T21:55:05.723Z,1.70
2023-05-16T21:57:16.271Z,1.73
2023-05-16T21:59:24.107Z,1.65
2023-05-16T22:01:32.037Z,2.10
2023-05-16T22:03:40.226Z,1.75
2023-05-16T22:05:48.320Z,1.73
2023-05-16T22:07:56.510Z,2.40
2023-05-16T22:10:05.530Z,2.00
2023-05-16T22:12:16.806Z,2.28
2023-05-16T22:14:24.751Z,1.90
2023-05-16T22:16:32.831Z,1.70
2023-05-16T22:18:41.101Z,2.47
2023-05-16T22:20:49.393Z,1.90
2023-05-16T22:22:58.980Z,2.20
2023-05-16T22:25:08.587Z,2.30
2023-05-16T22:27:19.081Z,2.17
2023-05-16T22:29:27.066Z,2.08
2023-05-16T22:31:35.279Z,1.83
2023-05-16T22:33:43.576Z,1.77
2023-05-16T22:35:51.694Z,2.35
2023-05-16T22:37:59.644Z,2.00
2023-05-16T22:40:08.526Z,1.80
2023-05-16T22:42:19.165Z,1.70
2023-05-16T22:44:27.095Z,2.78
2023-05-16T22:46:35.348Z,2.10
2023-05-16T22:48:45.787Z,2.05
2023-05-16T22:50:53.968Z,2.15
2023-05-16T22:53:02.256Z,2.55
2023-05-16T22:55:11.069Z,1.80
2023-05-16T22:57:21.805Z,2.67
2023-05-16T22:59:29.886Z,2.30
2023-05-16T23:01:39.501Z,2.72
2023-05-16T23:03:47.928Z,3.42
2023-05-16T23:05:55.927Z,2.05
2023-05-16T23:08:04.753Z,2.50
2023-05-16T23:10:15.904Z,2.17
2023-05-16T23:12:26.698Z,2.38
2023-05-16T23:14:34.677Z,2.30
2023-05-16T23:16:42.682Z,2.70
2023-05-16T23:18:50.840Z,2.25
2023-05-16T23:20:59.190Z,2.65
2023-05-16T23:23:07.385Z,2.50
2023-05-16T23:25:15.297Z,2.50
2023-05-16T23:27:23.497Z,1.77
2023-05-16T23:29:34.080Z,1.95
2023-05-16T23:31:42.133Z,2.17
2023-05-16T23:33:50.221Z,2.30
2023-05-16T23:35:58.272Z,2.28
2023-05-16T23:38:06.334Z,1.75
2023-05-16T23:40:15.221Z,2.78
2023-05-16T23:42:23.091Z,2.47
2023-05-16T23:44:34.050Z,2.70
2023-05-16T23:46:42.022Z,2.13
2023-05-16T23:48:50.747Z,1.55
2023-05-16T23:50:58.889Z,2.08
2023-05-16T23:53:07.012Z,2.25
2023-05-16T23:55:16.102Z,2.25
2023-05-16T23:57:24.396Z,2.28
2023-05-16T23:59:34.993Z,2.58
